Time;durP1;ratioP1;P1;durP2;ratioP2;P2;SDS_P1;SDS_P2;PMS_P1;PMS_P2;Temp;Humidity;BMP_temperature;BMP_pressure;BME280_temperature;BME280_humidity;BME280_pressure;Samples;Min_cycle;Max_cycle;Signal;HPM_P1;HPM_P2
2022/12/07 00:02:30;;;;;;;25.47;15.87;;;;;;;3.11;100.00;99184.88;5090158;28;20229;-79
2022/12/07 00:04:58;;;;;;;27.20;15.73;;;;;;;2.77;100.00;99183.34;5086963;28;20658;-80
2022/12/07 00:07:27;;;;;;;24.23;15.80;;;;;;;3.05;100.00;99179.84;5095091;27;20232;-80
2022/12/07 00:09:55;;;;;;;29.30;16.83;;;;;;;2.86;100.00;99180.44;5082027;28;20199;-80
2022/12/07 00:12:27;;;;;;;23.93;14.90;;;;;;;2.97;100.00;99172.25;5090192;28;20187;-80
2022/12/07 00:14:56;;;;;;;23.87;15.03;;;;;;;2.84;100.00;99176.16;5093349;28;20192;-80
2022/12/07 00:17:25;;;;;;;23.83;14.77;;;;;;;2.83;100.00;99190.16;5090703;28;20219;-80
2022/12/07 00:19:54;;;;;;;23.67;15.87;;;;;;;2.90;100.00;99177.75;5093160;28;20188;-81
2022/12/07 00:22:24;;;;;;;26.50;14.73;;;;;;;2.98;100.00;99168.72;5093289;28;20199;-80
2022/12/07 00:24:52;;;;;;;23.57;15.20;;;;;;;3.11;100.00;99170.03;5093793;27;20219;-80
2022/12/07 00:27:21;;;;;;;24.43;14.93;;;;;;;3.01;100.00;99162.53;5092776;28;20200;-79
2022/12/07 00:29:49;;;;;;;26.83;16.27;;;;;;;2.75;100.00;99166.00;5092713;28;20199;-79
2022/12/07 00:32:17;;;;;;;25.00;15.27;;;;;;;2.68;100.00;99162.72;5092732;28;20191;-79
2022/12/07 00:34:46;;;;;;;24.93;14.47;;;;;;;2.93;100.00;99162.78;5088815;28;20192;-79
2022/12/07 00:37:16;;;;;;;24.37;14.47;;;;;;;3.00;100.00;99158.22;5092338;28;20212;-80
2022/12/07 00:39:44;;;;;;;25.20;15.50;;;;;;;2.79;100.00;99151.91;5090734;28;20187;-79
2022/12/07 00:42:13;;;;;;;24.87;14.83;;;;;;;3.00;100.00;99140.75;5092835;28;20211;-79
2022/12/07 00:44:41;;;;;;;24.80;15.30;;;;;;;3.00;100.00;99147.75;5074327;28;20203;-80
2022/12/07 00:47:10;;;;;;;24.60;14.93;;;;;;;2.86;100.00;99149.06;5090688;28;20196;-79
2022/12/07 00:49:39;;;;;;;24.27;15.27;;;;;;;3.02;100.00;99153.78;5091171;28;20202;-79
2022/12/07 00:52:08;;;;;;;26.03;16.43;;;;;;;2.99;100.00;99144.28;5092555;28;20268;-80
2022/12/07 00:54:38;;;;;;;28.10;16.90;;;;;;;2.84;100.00;99137.78;5087746;28;20203;-80
2022/12/07 00:57:06;;;;;;;27.10;16.63;;;;;;;2.76;100.00;99136.34;5092676;28;20242;-80
2022/12/07 00:59:35;;;;;;;25.73;15.80;;;;;;;2.84;100.00;99132.56;5091286;28;20198;-79
2022/12/07 01:02:06;;;;;;;28.90;15.97;;;;;;;3.06;100.00;99137.06;5092625;28;20199;-80
2022/12/07 01:04:34;;;;;;;30.17;17.97;;;;;;;2.87;100.00;99145.53;5092262;28;20196;-80
2022/12/07 01:07:03;;;;;;;27.97;17.03;;;;;;;2.93;100.00;99148.88;5089885;28;20224;-80
2022/12/07 01:09:32;;;;;;;28.23;16.93;;;;;;;2.85;100.00;99142.13;5088813;28;20184;-79
2022/12/07 01:12:03;;;;;;;28.30;17.30;;;;;;;2.87;100.00;99139.44;5086165;28;20188;-80
2022/12/07 01:14:37;;;;;;;29.53;17.73;;;;;;;2.76;100.00;99146.78;5090168;28;20192;-79
2022/12/07 01:17:05;;;;;;;34.27;19.60;;;;;;;2.85;100.00;99155.19;5084118;28;20200;-79
2022/12/07 01:19:33;;;;;;;31.70;18.33;;;;;;;2.84;100.00;99148.25;5089950;28;20187;-80
2022/12/07 01:22:01;;;;;;;34.27;20.13;;;;;;;2.87;100.00;99142.06;5088124;28;20226;-79
2022/12/07 01:24:30;;;;;;;41.60;24.97;;;;;;;2.86;100.00;99146.44;5071958;28;20200;-79
2022/12/07 01:26:58;;;;;;;36.83;22.10;;;;;;;2.90;100.00;99134.13;5093830;28;20184;-79
2022/12/07 01:29:28;;;;;;;39.33;21.20;;;;;;;2.96;100.00;99140.91;5110304;28;20244;-80
2022/12/07 01:31:56;;;;;;;40.37;20.27;;;;;;;3.01;100.00;99128.53;5101673;28;20290;-79
2022/12/07 01:34:24;;;;;;;36.53;21.03;;;;;;;2.98;100.00;99131.22;5110217;28;20195;-79
2022/12/07 01:36:53;;;;;;;33.60;19.63;;;;;;;3.04;100.00;99136.28;5106250;28;20202;-79
2022/12/07 01:39:22;;;;;;;34.93;20.93;;;;;;;3.02;100.00;99125.00;5105377;28;20218;-79
2022/12/07 01:41:50;;;;;;;34.77;20.33;;;;;;;3.12;100.00;99129.03;5110144;28;20238;-79
2022/12/07 01:44:22;;;;;;;34.67;20.40;;;;;;;3.08;100.00;99130.88;5104076;28;20195;-79
2022/12/07 01:46:54;;;;;;;31.93;21.57;;;;;;;3.12;100.00;99139.50;5101410;28;20196;-79
2022/12/07 01:49:28;;;;;;;30.63;18.27;;;;;;;3.15;100.00;99136.75;5088463;28;20192;-80
2022/12/07 01:52:03;;;;;;;28.87;17.87;;;;;;;3.30;100.00;99148.47;5095720;28;20188;-80
2022/12/07 01:54:35;;;;;;;30.57;17.53;;;;;;;3.33;100.00;99138.75;5094341;27;20190;-79
2022/12/07 01:57:08;;;;;;;30.00;19.10;;;;;;;3.22;100.00;99138.25;5095734;28;20188;-80
2022/12/07 01:59:37;;;;;;;30.97;18.77;;;;;;;3.22;100.00;99124.31;5096423;27;20216;-79
2022/12/07 02:02:18;;;;;;;27.90;17.33;;;;;;;3.27;100.00;99125.00;5094166;28;20199;-79
2022/12/07 02:04:47;;;;;;;25.87;14.60;;;;;;;3.39;100.00;99121.97;5095225;28;20188;-79
2022/12/07 02:07:16;;;;;;;23.33;14.97;;;;;;;3.35;100.00;99118.59;5095003;28;20223;-79
2022/12/07 02:09:45;;;;;;;28.43;14.63;;;;;;;3.49;100.00;99117.25;5094182;28;20360;-79
2022/12/07 02:12:13;;;;;;;21.20;14.73;;;;;;;3.38;100.00;99112.41;5093301;28;20223;-79
2022/12/07 02:14:42;;;;;;;20.77;14.03;;;;;;;3.47;100.00;99114.69;5095158;28;20195;-79
2022/12/07 02:17:18;;;;;;;23.33;15.50;;;;;;;3.40;100.00;99116.69;5093107;28;20184;-79
2022/12/07 02:20:12;;;;;;;21.13;13.00;;;;;;;3.58;100.00;99104.69;5089310;28;20237;-79
2022/12/07 02:23:19;;;;;;;21.93;13.83;;;;;;;3.53;100.00;99104.00;5096487;27;20257;-79
2022/12/07 02:26:33;;;;;;;23.97;13.37;;;;;;;3.49;100.00;99101.56;5094710;28;20199;-79
2022/12/07 02:29:14;;;;;;;20.33;12.60;;;;;;;3.60;100.00;99095.00;5050451;28;20204;-79
2022/12/07 02:31:51;;;;;;;22.83;13.00;;;;;;;3.54;100.00;99107.47;5052379;28;20193;-79
2022/12/07 02:34:27;;;;;;;20.07;12.57;;;;;;;3.59;100.00;99100.31;5047138;28;20240;-80
2022/12/07 02:37:03;;;;;;;17.73;11.83;;;;;;;3.49;100.00;99101.56;5010176;28;20664;-79
2022/12/07 02:39:42;;;;;;;19.57;12.37;;;;;;;3.58;100.00;99099.47;5030826;28;20217;-79
2022/12/07 02:42:33;;;;;;;19.13;11.60;;;;;;;3.62;100.00;99100.19;5031732;28;20256;-79
2022/12/07 02:45:06;;;;;;;18.53;12.70;;;;;;;3.45;100.00;99096.41;4973485;28;20671;-79
2022/12/07 02:47:38;;;;;;;17.57;10.93;;;;;;;3.56;100.00;99096.00;4970733;28;20250;-79
2022/12/07 02:50:10;;;;;;;17.87;11.57;;;;;;;3.56;100.00;99097.78;4973365;28;20317;-79
2022/12/07 02:52:38;;;;;;;19.37;12.27;;;;;;;3.54;100.00;99092.59;4967115;28;20198;-80
2022/12/07 02:55:10;;;;;;;16.90;11.10;;;;;;;3.61;100.00;99095.88;5002099;28;20221;-80
2022/12/07 02:57:58;;;;;;;19.30;11.77;;;;;;;3.59;100.00;99093.31;5028422;28;20248;-79
2022/12/07 03:00:29;;;;;;;17.37;11.60;;;;;;;3.63;100.00;99089.66;4990927;28;20199;-80
2022/12/07 03:03:05;;;;;;;19.40;12.33;;;;;;;3.52;100.00;99088.34;5025229;28;20203;-79
2022/12/07 03:05:53;;;;;;;17.90;11.77;;;;;;;3.38;100.00;99091.47;5064799;28;20391;-79
2022/12/07 03:08:30;;;;;;;17.27;11.33;;;;;;;3.44;100.00;99078.16;5036023;28;20459;-80
2022/12/07 03:11:02;;;;;;;16.50;11.17;;;;;;;3.52;100.00;99078.72;5071548;28;20242;-79
2022/12/07 03:13:39;;;;;;;17.27;11.07;;;;;;;3.43;100.00;99085.16;5068215;28;20196;-79
2022/12/07 03:16:15;;;;;;;16.37;11.20;;;;;;;3.44;100.00;99075.53;5066038;28;20249;-79
2022/12/07 03:18:50;;;;;;;19.30;10.90;;;;;;;3.49;100.00;99078.84;5068847;28;20223;-79
2022/12/07 03:21:23;;;;;;;15.70;10.60;;;;;;;3.40;100.00;99071.31;5068975;28;20216;-79
2022/12/07 03:23:55;;;;;;;16.53;10.80;;;;;;;3.50;100.00;99080.56;5070258;28;20188;-79
2022/12/07 03:26:30;;;;;;;18.97;11.50;;;;;;;3.42;100.00;99086.06;5058563;28;20188;-79
2022/12/07 03:29:03;;;;;;;17.30;11.43;;;;;;;3.39;100.00;99070.47;5093215;28;20225;-79
2022/12/07 03:31:36;;;;;;;15.37;10.70;;;;;;;3.38;100.00;99074.00;5051474;28;20696;-79
2022/12/07 03:34:12;;;;;;;16.57;10.70;;;;;;;3.41;100.00;99065.19;5053919;28;20219;-79
2022/12/07 03:36:46;;;;;;;16.53;10.60;;;;;;;3.43;100.00;99065.97;5048671;28;20278;-79
2022/12/07 03:39:22;;;;;;;16.27;10.80;;;;;;;3.32;100.00;99070.75;5043166;28;20224;-79
2022/12/07 03:41:54;;;;;;;15.67;10.47;;;;;;;3.46;100.00;99071.09;5048561;28;20242;-79
2022/12/07 03:44:24;;;;;;;14.83;10.47;;;;;;;3.43;100.00;99066.81;5048832;28;20189;-79
2022/12/07 03:47:08;;;;;;;17.43;10.67;;;;;;;3.52;100.00;99068.25;5046166;28;20232;-79
2022/12/07 03:49:44;;;;;;;15.07;9.93;;;;;;;3.55;100.00;99060.28;5051100;28;20238;-80
2022/12/07 03:52:24;;;;;;;16.20;10.67;;;;;;;3.56;100.00;99067.22;5046033;28;20230;-79
2022/12/07 03:54:58;;;;;;;15.00;9.93;;;;;;;3.56;100.00;99064.59;4990366;28;20228;-79
2022/12/07 03:57:28;;;;;;;16.10;10.60;;;;;;;3.44;100.00;99067.66;5048640;28;20251;-79
2022/12/07 04:00:00;;;;;;;16.33;10.30;;;;;;;3.40;100.00;99061.72;5043129;28;20271;-79
2022/12/07 04:02:31;;;;;;;13.67;9.40;;;;;;;3.50;100.00;99064.84;5046811;28;20212;-79
2022/12/07 04:05:00;;;;;;;16.70;11.53;;;;;;;3.25;100.00;99064.00;5047849;28;20196;-79
2022/12/07 04:07:30;;;;;;;15.60;9.80;;;;;;;3.34;100.00;99058.44;5044946;28;20216;-79
2022/12/07 04:09:59;;;;;;;14.67;9.57;;;;;;;3.41;100.00;99055.56;4970386;28;20240;-79
2022/12/07 04:12:28;;;;;;;18.17;11.03;;;;;;;3.39;100.00;99059.16;4971261;28;20191;-80
2022/12/07 04:14:58;;;;;;;17.80;10.73;;;;;;;3.46;100.00;99060.59;4963602;28;20207;-80
2022/12/07 04:17:26;;;;;;;17.87;10.70;;;;;;;3.49;100.00;99062.28;4970050;28;20222;-79
2022/12/07 04:19:56;;;;;;;16.57;11.03;;;;;;;3.43;100.00;99065.97;4967449;28;20216;-79
2022/12/07 04:22:25;;;;;;;17.67;10.37;;;;;;;3.48;100.00;99060.59;4963642;28;20207;-79
2022/12/07 04:24:53;;;;;;;14.80;10.20;;;;;;;3.50;100.00;99064.84;4938099;28;20258;-79
2022/12/07 04:27:22;;;;;;;18.07;10.90;;;;;;;3.40;100.00;99064.31;4971702;28;20215;-79
2022/12/07 04:29:50;;;;;;;17.97;11.40;;;;;;;3.50;100.00;99064.00;4968248;28;20223;-79
2022/12/07 04:32:21;;;;;;;18.27;11.87;;;;;;;3.51;100.00;99048.22;4986574;28;20740;-79
2022/12/07 04:34:50;;;;;;;17.30;11.13;;;;;;;3.44;100.00;99063.28;5012982;28;20227;-79
2022/12/07 04:37:24;;;;;;;16.57;11.07;;;;;;;3.56;100.00;99067.22;5086350;28;20199;-79
2022/12/07 04:39:54;;;;;;;15.43;12.87;;;;;;;3.28;100.00;99058.66;5091252;28;20215;-79
2022/12/07 04:42:23;;;;;;;17.53;11.30;;;;;;;3.42;100.00;99066.88;5089517;28;20192;-80
2022/12/07 04:44:52;;;;;;;14.00;11.00;;;;;;;3.50;100.00;99062.22;5088554;28;20196;-79
2022/12/07 04:47:20;;;;;;;16.50;10.77;;;;;;;3.48;100.00;99066.66;5092400;28;20248;-79
2022/12/07 04:49:50;;;;;;;16.07;10.57;;;;;;;3.46;100.00;99060.59;5092209;28;20245;-79
2022/12/07 04:52:19;;;;;;;15.60;10.37;;;;;;;3.49;100.00;99060.53;5092505;28;20245;-79
2022/12/07 04:54:49;;;;;;;15.00;10.27;;;;;;;3.55;100.00;99062.88;5091110;28;20191;-79
2022/12/07 04:57:17;;;;;;;18.00;10.60;;;;;;;3.60;100.00;99065.34;5087287;28;20301;-79
2022/12/07 04:59:46;;;;;;;14.50;10.20;;;;;;;3.60;100.00;99052.25;5088524;28;20211;-79
2022/12/07 05:02:14;;;;;;;18.10;10.27;;;;;;;3.44;100.00;99054.59;5092520;28;20192;-80
2022/12/07 05:04:43;;;;;;;16.93;11.17;;;;;;;3.44;100.00;99050.19;5090878;28;20207;-79
2022/12/07 05:07:11;;;;;;;18.20;11.10;;;;;;;3.45;100.00;99056.28;5091259;28;20710;-79
2022/12/07 05:09:41;;;;;;;15.93;10.57;;;;;;;3.56;100.00;99054.13;5088921;28;20199;-79
2022/12/07 05:12:10;;;;;;;16.77;10.90;;;;;;;3.53;100.00;99046.38;5094803;28;20199;-79
2022/12/07 05:14:39;;;;;;;17.83;11.50;;;;;;;3.37;100.00;99050.47;5093832;28;20230;-79
2022/12/07 05:17:11;;;;;;;16.33;12.03;;;;;;;3.40;100.00;99056.47;5092151;28;20195;-79
2022/12/07 05:19:42;;;;;;;17.57;11.47;;;;;;;3.44;100.00;99047.59;5091882;28;20207;-79
2022/12/07 05:22:10;;;;;;;19.50;12.17;;;;;;;3.48;100.00;99052.72;5091266;28;20195;-79
2022/12/07 05:24:39;;;;;;;17.73;11.60;;;;;;;3.54;100.00;99058.56;5094551;28;20207;-79
2022/12/07 05:27:09;;;;;;;17.60;11.33;;;;;;;3.52;100.00;99060.41;5093683;28;20195;-80
2022/12/07 05:29:39;;;;;;;17.77;11.13;;;;;;;3.50;100.00;99061.38;5094301;28;20200;-79
2022/12/07 05:32:09;;;;;;;16.63;11.93;;;;;;;3.49;100.00;99060.53;5074903;28;20187;-79
2022/12/07 05:34:39;;;;;;;18.43;11.70;;;;;;;3.44;100.00;99060.66;5096076;28;20200;-79
2022/12/07 05:37:08;;;;;;;20.93;13.00;;;;;;;3.48;100.00;99055.34;5094314;28;20192;-79
2022/12/07 05:39:37;;;;;;;18.80;12.80;;;;;;;3.34;100.00;99061.06;5094631;28;20253;-79
2022/12/07 05:42:15;;;;;;;21.20;14.13;;;;;;;3.33;100.00;99054.97;5097993;27;20199;-79
2022/12/07 05:44:46;;;;;;;19.60;12.53;;;;;;;3.45;100.00;99062.38;5077122;28;20221;-80
2022/12/07 05:47:16;;;;;;;19.57;12.80;;;;;;;3.50;100.00;99067.47;5095314;28;20244;-79
2022/12/07 05:49:45;;;;;;;19.27;13.50;;;;;;;3.52;100.00;99076.09;5093420;28;20196;-79
2022/12/07 05:52:15;;;;;;;20.03;12.70;;;;;;;3.49;100.00;99067.53;5092833;28;20203;-79
2022/12/07 05:54:44;;;;;;;21.23;13.23;;;;;;;3.54;100.00;99073.44;5094247;28;20336;-80
2022/12/07 05:57:12;;;;;;;22.37;13.00;;;;;;;3.51;100.00;99070.94;5095580;28;20241;-79
2022/12/07 05:59:39;;;;;;;22.90;14.00;;;;;;;3.55;100.00;99072.50;5093731;28;20272;-79
2022/12/07 06:02:11;;;;;;;21.67;13.33;;;;;;;3.59;100.00;99074.13;5092876;28;20200;-79
2022/12/07 06:04:43;;;;;;;20.47;12.90;;;;;;;3.60;100.00;99075.84;5095254;28;20231;-79
2022/12/07 06:07:13;;;;;;;22.27;13.60;;;;;;;3.63;100.00;99066.09;5094755;28;20219;-79
2022/12/07 06:09:42;;;;;;;21.90;13.47;;;;;;;3.63;100.00;99067.84;5094144;28;20195;-79
2022/12/07 06:14:57;;;;;;;24.17;16.37;;;;;;;3.43;100.00;99061.59;5097365;27;20199;-79
2022/12/07 06:17:27;;;;;;;21.90;14.10;;;;;;;3.49;100.00;99057.91;5050077;28;20189;-79
2022/12/07 06:19:55;;;;;;;22.27;14.77;;;;;;;3.51;100.00;99061.31;5052529;28;20217;-79
2022/12/07 06:22:24;;;;;;;25.10;14.13;;;;;;;3.57;100.00;99066.34;5046476;28;20209;-79
2022/12/07 06:24:52;;;;;;;24.40;15.13;;;;;;;3.63;100.00;99070.47;5047526;28;20221;-79
2022/12/07 06:27:22;;;;;;;25.07;14.63;;;;;;;3.56;100.00;99067.22;5049786;28;20250;-79
2022/12/07 06:29:50;;;;;;;24.53;14.63;;;;;;;3.57;100.00;99071.56;5067578;28;20183;-80
2022/12/07 06:32:19;;;;;;;21.93;14.03;;;;;;;3.64;100.00;99073.03;5050692;28;20235;-79
2022/12/07 06:34:49;;;;;;;24.20;14.23;;;;;;;3.64;100.00;99078.25;5049289;28;20200;-79
2022/12/07 06:37:17;;;;;;;22.23;13.33;;;;;;;3.61;100.00;99073.16;5051178;28;20226;-79
2022/12/07 06:39:46;;;;;;;19.97;13.93;;;;;;;3.53;100.00;99071.72;5015835;28;20247;-79
2022/12/07 06:42:15;;;;;;;23.87;14.50;;;;;;;3.58;100.00;99075.03;5048429;28;20243;-79
2022/12/07 06:44:43;;;;;;;23.23;15.00;;;;;;;3.54;100.00;99076.03;4990197;28;20191;-80
2022/12/07 06:47:14;;;;;;;22.97;14.60;;;;;;;3.62;100.00;99076.63;4992340;28;20257;-79
2022/12/07 06:50:05;;;;;;;25.03;15.33;;;;;;;3.59;100.00;99084.59;5051944;28;20205;-79
2022/12/07 06:52:37;;;;;;;24.10;14.70;;;;;;;3.57;100.00;99076.81;5031297;28;20184;-79
2022/12/07 06:55:09;;;;;;;21.13;13.97;;;;;;;3.55;100.00;99085.59;5051673;28;20205;-80
2022/12/07 06:57:38;;;;;;;22.77;15.13;;;;;;;3.52;100.00;99091.81;5000807;28;20220;-79
2022/12/07 07:00:08;;;;;;;21.80;14.27;;;;;;;3.50;100.00;99088.41;5044232;28;20224;-79
2022/12/07 07:02:37;;;;;;;21.70;13.77;;;;;;;3.53;100.00;99088.28;5060896;28;20196;-79
2022/12/07 07:05:08;;;;;;;21.33;13.43;;;;;;;3.52;100.00;99093.59;5092937;28;20195;-79
2022/12/07 07:07:36;;;;;;;21.80;13.50;;;;;;;3.60;100.00;99088.91;5028156;28;20304;-80
2022/12/07 07:10:25;;;;;;;20.03;13.27;;;;;;;3.59;100.00;99089.84;5032088;28;20284;-79
2022/12/07 07:12:54;;;;;;;21.90;13.70;;;;;;;3.50;100.00;99087.56;5035033;28;20194;-79
2022/12/07 07:15:25;;;;;;;18.80;12.70;;;;;;;3.40;100.00;99087.03;5031492;28;20206;-80
2022/12/07 07:17:53;;;;;;;23.40;13.07;;;;;;;3.49;100.00;99091.94;4974479;28;20200;-79
2022/12/07 07:20:23;;;;;;;18.20;12.33;;;;;;;3.48;100.00;99082.38;4970197;28;20202;-79
2022/12/07 07:22:55;;;;;;;18.80;12.07;;;;;;;3.41;100.00;99092.22;4970013;28;20211;-79
2022/12/07 07:25:23;;;;;;;20.67;12.60;;;;;;;3.37;100.00;99087.13;4970251;28;20211;-79
2022/12/07 07:27:52;;;;;;;18.50;11.97;;;;;;;3.27;100.00;99102.28;4968257;28;20226;-80
2022/12/07 07:30:20;;;;;;;22.60;12.67;;;;;;;3.29;100.00;99099.66;4968942;28;20235;-80
2022/12/07 07:32:50;;;;;;;19.77;12.47;;;;;;;3.08;100.00;99099.47;4966627;28;20227;-79
2022/12/07 07:35:19;;;;;;;18.80;11.67;;;;;;;3.18;100.00;99107.84;4972792;28;20202;-79
2022/12/07 07:37:50;;;;;;;17.27;11.47;;;;;;;3.27;100.00;99104.06;4976121;28;20631;-79
2022/12/07 07:40:20;;;;;;;14.97;10.97;;;;;;;3.37;100.00;99114.16;5048811;28;20197;-79
2022/12/07 07:42:50;;;;;;;16.17;11.13;;;;;;;3.29;100.00;99103.13;5076613;28;20195;-80
2022/12/07 07:45:21;;;;;;;17.40;12.00;;;;;;;3.33;100.00;99109.94;5093236;28;20203;-79
2022/12/07 07:47:50;;;;;;;18.70;11.47;;;;;;;3.45;100.00;99106.88;5072335;28;20196;-79
2022/12/07 07:50:19;;;;;;;17.93;10.73;;;;;;;3.52;100.00;99115.38;5087505;28;20245;-79
2022/12/07 07:52:48;;;;;;;17.77;11.23;;;;;;;3.59;100.00;99113.41;5094440;27;20210;-79
2022/12/07 07:55:17;;;;;;;15.67;10.40;;;;;;;3.59;100.00;99111.63;5093310;28;20192;-80
2022/12/07 07:57:46;;;;;;;16.93;10.93;;;;;;;3.72;100.00;99114.66;5090691;28;20237;-79
2022/12/07 08:00:22;;;;;;;18.30;11.43;;;;;;;3.56;100.00;99113.50;5093002;28;20205;-80
2022/12/07 08:02:51;;;;;;;19.10;11.43;;;;;;;3.77;100.00;99120.59;5091196;28;20216;-80
2022/12/07 08:05:20;;;;;;;18.97;12.20;;;;;;;3.66;100.00;99112.25;5093190;28;20210;-80
2022/12/07 08:07:50;;;;;;;19.33;12.57;;;;;;;3.57;100.00;99120.44;5091828;28;20307;-80
2022/12/07 08:10:19;;;;;;;18.60;12.73;;;;;;;3.59;100.00;99102.94;5088596;28;20253;-79
2022/12/07 08:15:33;;;;;;;22.60;13.50;;;;;;;3.53;100.00;99106.63;5092790;28;20195;-79
2022/12/07 08:18:02;;;;;;;21.00;13.60;;;;;;;3.55;100.00;99103.94;5092897;28;20196;-79
2022/12/07 08:20:31;;;;;;;21.80;14.03;;;;;;;3.49;100.00;99109.41;5092871;28;20661;-79
2022/12/07 08:23:01;;;;;;;23.43;14.23;;;;;;;3.52;100.00;99111.91;5087081;28;20226;-79
2022/12/07 08:25:30;;;;;;;23.33;16.13;;;;;;;3.50;100.00;99116.34;5090543;28;20183;-80
2022/12/07 08:28:00;;;;;;;22.30;14.27;;;;;;;3.64;100.00;99116.69;5095558;27;20257;-80
2022/12/07 08:30:29;;;;;;;23.17;14.77;;;;;;;3.71;100.00;99111.19;5089411;28;20210;-80
2022/12/07 08:32:58;;;;;;;22.47;14.60;;;;;;;3.67;100.00;99122.69;5092382;28;20192;-80
2022/12/07 08:35:26;;;;;;;23.73;14.90;;;;;;;3.75;100.00;99114.53;5090475;28;20300;-79
2022/12/07 08:37:57;;;;;;;26.20;14.00;;;;;;;3.77;100.00;99117.13;5087191;28;20195;-80
2022/12/07 08:40:27;;;;;;;23.03;15.13;;;;;;;3.66;100.00;99117.47;5092613;28;20203;-79
2022/12/07 08:42:55;;;;;;;22.27;14.13;;;;;;;3.63;100.00;99120.22;5094086;28;20219;-80
2022/12/07 08:45:24;;;;;;;24.23;15.33;;;;;;;3.66;100.00;99114.88;5092582;28;20196;-79
2022/12/07 08:47:58;;;;;;;23.93;14.63;;;;;;;3.80;100.00;99120.47;5091732;28;20274;-80
2022/12/07 08:50:27;;;;;;;19.93;13.43;;;;;;;4.04;100.00;99116.06;5089338;28;20192;-80
2022/12/07 08:52:59;;;;;;;22.43;14.37;;;;;;;3.89;100.00;99116.66;5091377;28;20192;-79
2022/12/07 08:55:30;;;;;;;19.50;13.20;;;;;;;4.21;100.00;99120.66;5092166;28;20200;-80
2022/12/07 08:58:01;;;;;;;21.20;14.20;;;;;;;4.05;100.00;99115.13;5094612;28;20183;-80
2022/12/07 09:00:30;;;;;;;19.77;12.83;;;;;;;4.19;100.00;99120.72;5096002;28;20195;-80
2022/12/07 09:02:58;;;;;;;18.93;12.87;;;;;;;4.37;100.00;99118.31;5093031;28;20216;-80
2022/12/07 09:05:27;;;;;;;19.60;11.93;;;;;;;4.39;100.00;99113.84;5096493;28;20183;-80
2022/12/07 09:08:00;;;;;;;18.27;11.90;;;;;;;4.55;100.00;99110.56;5094866;28;20291;-80
2022/12/07 09:10:31;;;;;;;20.00;12.20;;;;;;;4.51;100.00;99111.56;5093368;28;20195;-80
2022/12/07 09:13:00;;;;;;;17.93;12.30;;;;;;;4.62;100.00;99115.53;5092825;28;20195;-80
2022/12/07 09:15:31;;;;;;;17.87;11.57;;;;;;;4.38;100.00;99109.50;5093877;28;20670;-80
2022/12/07 09:18:00;;;;;;;17.07;12.20;;;;;;;4.49;100.00;99109.94;5050892;28;20268;-80
2022/12/07 09:20:31;;;;;;;20.53;12.13;;;;;;;4.57;100.00;99121.81;5054005;28;20251;-80
2022/12/07 09:23:00;;;;;;;15.93;10.77;;;;;;;4.63;100.00;99115.47;5052072;28;20255;-79
2022/12/07 09:25:31;;;;;;;19.20;11.50;;;;;;;4.59;100.00;99120.00;5053973;28;20349;-80
2022/12/07 09:28:00;;;;;;;17.53;11.30;;;;;;;4.59;100.00;99112.13;5031018;28;20236;-80
2022/12/07 09:30:30;;;;;;;19.87;12.50;;;;;;;4.50;100.00;99120.34;5034766;28;20193;-79
2022/12/07 09:32:59;;;;;;;17.63;11.00;;;;;;;4.52;100.00;99117.66;5029677;28;20208;-80
2022/12/07 09:35:28;;;;;;;19.30;11.63;;;;;;;4.32;100.00;99121.09;4997456;28;20194;-80
2022/12/07 09:37:57;;;;;;;15.13;10.83;;;;;;;4.55;100.00;99112.31;5032192;28;20197;-80
2022/12/07 09:40:26;;;;;;;18.37;11.20;;;;;;;4.67;100.00;99109.19;5046243;28;20212;-80
2022/12/07 09:42:57;;;;;;;19.17;11.40;;;;;;;4.84;100.00;99109.38;5049828;28;20216;-80
2022/12/07 09:45:29;;;;;;;15.47;10.73;;;;;;;4.83;100.00;99101.56;5056244;28;20188;-80
2022/12/07 09:48:03;;;;;;;14.73;9.93;;;;;;;4.82;100.00;99099.81;5009538;28;20221;-80
2022/12/07 09:50:32;;;;;;;13.00;9.53;;;;;;;4.81;100.00;99098.97;5007653;28;20205;-79
2022/12/07 09:53:10;;;;;;;19.50;9.40;;;;;;;4.69;100.00;99085.50;5007069;28;20205;-80
2022/12/07 09:55:39;;;;;;;13.13;8.43;;;;;;;4.92;100.00;99084.53;5012332;28;20248;-80
2022/12/07 09:58:20;;;;;;;13.70;8.20;;;;;;;5.06;100.00;99074.34;5012732;28;20202;-80
2022/12/07 10:00:50;;;;;;;16.00;8.27;;;;;;;5.18;100.00;99063.28;5054780;28;20200;-79
2022/12/07 10:03:21;;;;;;;13.53;8.00;;;;;;;5.14;100.00;99062.59;5067078;28;20266;-80
2022/12/07 10:05:53;;;;;;;11.77;7.10;;;;;;;5.45;100.00;99058.59;5083768;28;20236;-80
2022/12/07 10:08:23;;;;;;;13.63;6.83;;;;;;;5.59;100.00;99045.69;5110827;28;20276;-79
2022/12/07 10:10:53;;;;;;;9.57;6.53;;;;;;;5.61;100.00;99045.63;5114711;28;20218;-79
2022/12/07 10:13:36;;;;;;;16.20;9.20;;;;;;;5.63;100.00;99038.53;5114572;28;20203;-79
2022/12/07 10:16:05;;;;;;;12.70;6.80;;;;;;;5.41;100.00;99034.25;5114322;28;20191;-79
2022/12/07 10:18:41;;;;;;;13.83;9.77;;;;;;;5.26;100.00;99028.81;5113741;27;20191;-80
2022/12/07 10:21:16;;;;;;;9.20;6.13;;;;;;;5.41;100.00;99029.00;5115008;28;20230;-79
2022/12/07 10:24:02;;;;;;;8.30;5.20;;;;;;;5.33;100.00;99032.91;5109196;28;20230;-79
2022/12/07 10:26:35;;;;;;;9.00;5.27;;;;;;;5.29;100.00;99021.66;5114821;28;20669;-80
2022/12/07 10:29:22;;;;;;;10.37;6.90;;;;;;;5.17;100.00;99009.94;5115282;28;20187;-80
2022/12/07 10:31:56;;;;;;;9.47;5.30;;;;;;;5.19;100.00;99017.75;5071839;28;20299;-79
2022/12/07 10:34:29;;;;;;;6.83;5.37;;;;;;;5.04;100.00;99013.19;5022492;28;20199;-80
2022/12/07 10:37:17;;;;;;;8.37;5.20;;;;;;;5.09;100.00;99014.66;5071641;28;20198;-79
2022/12/07 10:39:48;;;;;;;9.07;5.10;;;;;;;5.03;100.00;99016.72;5066028;28;20196;-79
2022/12/07 10:42:19;;;;;;;7.83;5.20;;;;;;;5.09;100.00;99011.19;5011598;28;20282;-79
2022/12/07 10:44:50;;;;;;;6.97;4.67;;;;;;;4.92;100.00;99006.66;5009249;28;20206;-79
2022/12/07 10:47:35;;;;;;;8.00;5.70;;;;;;;5.22;100.00;99007.13;5011558;28;20669;-80
2022/12/07 10:50:19;;;;;;;8.30;4.73;;;;;;;5.21;100.00;98999.28;5008260;28;20187;-80
2022/12/07 10:53:06;;;;;;;8.90;4.97;;;;;;;5.44;100.00;99005.22;4960944;28;20206;-80
2022/12/07 10:55:48;;;;;;;6.67;4.17;;;;;;;5.72;100.00;99003.94;5010548;28;20206;-80
2022/12/07 10:58:38;;;;;;;10.53;4.20;;;;;;;6.03;100.00;98987.59;5010604;28;20190;-80
2022/12/07 11:01:19;;;;;;;6.00;4.00;;;;;;;6.17;100.00;98990.41;5007912;28;20210;-80
2022/12/07 11:04:07;;;;;;;6.90;4.20;;;;;;;6.51;100.00;98980.84;5008549;28;20250;-80
2022/12/07 11:06:41;;;;;;;9.43;5.47;;;;;;;6.42;100.00;98976.06;4987515;28;20764;-80
2022/12/07 11:09:43;;;;;;;9.20;4.10;;;;;;;6.35;100.00;98967.59;5043541;28;20205;-80
2022/12/07 11:12:50;;;;;;;8.83;3.90;;;;;;;6.22;100.00;98970.00;5051245;28;20197;-80
2022/12/07 11:15:24;;;;;;;8.03;4.00;;;;;;;6.04;100.00;98957.75;5049728;28;20268;-80
2022/12/07 11:18:02;;;;;;;6.13;3.20;;;;;;;6.19;100.00;98964.91;5047652;28;20193;-80
2022/12/07 11:20:46;;;;;;;5.67;3.23;;;;;;;6.07;100.00;98960.22;5051055;28;20303;-80
2022/12/07 11:23:22;;;;;;;5.73;3.30;;;;;;;5.92;100.00;98959.22;5048154;28;20213;-80
2022/12/07 11:25:55;;;;;;;7.63;3.50;;;;;;;5.69;100.00;98946.28;5090446;28;20678;-79
2022/12/07 11:28:41;;;;;;;6.37;4.00;;;;;;;5.70;100.00;98955.88;5094100;28;20190;-79
2022/12/07 11:31:19;;;;;;;7.90;3.63;;;;;;;5.65;100.00;98952.59;5052742;28;20211;-79
2022/12/07 11:34:09;;;;;;;6.53;3.30;;;;;;;5.61;100.00;98949.28;5093465;28;20228;-80
2022/12/07 11:36:41;;;;;;;7.27;2.90;;;;;;;5.46;100.00;98950.84;5093769;28;20195;-80
2022/12/07 11:39:28;;;;;;;9.30;3.13;;;;;;;5.45;100.00;98935.16;5090717;28;20192;-80
2022/12/07 11:42:02;;;;;;;9.33;3.10;;;;;;;5.51;100.00;98936.66;5090812;28;20211;-79
2022/12/07 11:44:40;;;;;;;3.80;2.17;;;;;;;5.42;100.00;98935.31;5093156;28;20689;-79
2022/12/07 11:47:12;;;;;;;5.70;2.10;;;;;;;5.32;100.00;98936.66;5092852;28;20249;-79
2022/12/07 11:49:54;;;;;;;7.30;2.13;;;;;;;5.32;100.00;98934.88;5092755;28;20218;-79